sensor_id;sensor_type;location;lat;lon;timestamp;temperature;humidity
13375;DHT22;6756;51.354;15.754;2024-03-23T00:51:48;7.10;1.00
13375;DHT22;6756;51.354;15.754;2024-03-23T00:55:49;7.00;99.90
13375;DHT22;6756;51.354;15.754;2024-03-23T00:59:49;6.90;99.90
13375;DHT22;6756;51.354;15.754;2024-03-23T01:03:50;6.80;99.90
13375;DHT22;6756;51.354;15.754;2024-03-23T01:07:51;6.80;99.90
13375;DHT22;6756;51.354;15.754;2024-03-23T01:11:52;6.80;99.90
13375;DHT22;6756;51.354;15.754;2024-03-23T01:15:54;6.80;99.90
13375;DHT22;6756;51.354;15.754;2024-03-23T01:19:55;6.80;99.90
13375;DHT22;6756;51.354;15.754;2024-03-23T01:23:56;6.80;99.90
13375;DHT22;6756;51.354;15.754;2024-03-23T01:27:56;6.70;99.90
13375;DHT22;6756;51.354;15.754;2024-03-23T01:31:57;6.70;99.90
13375;DHT22;6756;51.354;15.754;2024-03-23T01:35:58;6.60;99.90
13375;DHT22;6756;51.354;15.754;2024-03-23T01:39:59;6.60;99.90
13375;DHT22;6756;51.354;15.754;2024-03-23T01:44:05;6.60;99.90
13375;DHT22;6756;51.354;15.754;2024-03-23T01:48:06;6.60;99.90
13375;DHT22;6756;51.354;15.754;2024-03-23T01:52:08;6.60;99.90
13375;DHT22;6756;51.354;15.754;2024-03-23T01:56:09;6.50;99.90
13375;DHT22;6756;51.354;15.754;2024-03-23T02:00:10;6.50;99.90
13375;DHT22;6756;51.354;15.754;2024-03-23T02:04:12;6.60;99.90
13375;DHT22;6756;51.354;15.754;2024-03-23T02:08:13;6.60;99.90
13375;DHT22;6756;51.354;15.754;2024-03-23T02:12:14;6.70;99.90
13375;DHT22;6756;51.354;15.754;2024-03-23T02:16:15;6.60;99.90
13375;DHT22;6756;51.354;15.754;2024-03-23T02:20:16;6.60;99.90
13375;DHT22;6756;51.354;15.754;2024-03-23T02:24:17;6.60;99.90
13375;DHT22;6756;51.354;15.754;2024-03-23T02:28:18;6.60;99.90
13375;DHT22;6756;51.354;15.754;2024-03-23T02:32:18;6.60;99.90
13375;DHT22;6756;51.354;15.754;2024-03-23T02:36:19;6.60;99.90
13375;DHT22;6756;51.354;15.754;2024-03-23T02:40:22;6.50;99.90
13375;DHT22;6756;51.354;15.754;2024-03-23T02:44:23;6.50;99.90
13375;DHT22;6756;51.354;15.754;2024-03-23T02:48:24;6.50;99.90
13375;DHT22;6756;51.354;15.754;2024-03-23T02:52:24;6.50;99.90
13375;DHT22;6756;51.354;15.754;2024-03-23T02:56:25;6.60;99.90
13375;DHT22;6756;51.354;15.754;2024-03-23T03:00:26;6.60;99.90
13375;DHT22;6756;51.354;15.754;2024-03-23T03:04:27;6.50;99.90
13375;DHT22;6756;51.354;15.754;2024-03-23T03:08:28;6.40;99.90
13375;DHT22;6756;51.354;15.754;2024-03-23T03:12:28;6.40;99.90
13375;DHT22;6756;51.354;15.754;2024-03-23T03:16:29;6.30;99.90
13375;DHT22;6756;51.354;15.754;2024-03-23T03:20:30;6.30;99.90
13375;DHT22;6756;51.354;15.754;2024-03-23T03:24:32;6.10;99.90
13375;DHT22;6756;51.354;15.754;2024-03-23T03:28:33;6.10;99.90
13375;DHT22;6756;51.354;15.754;2024-03-23T03:32:35;6.00;99.90
13375;DHT22;6756;51.354;15.754;2024-03-23T03:36:38;5.90;99.90
13375;DHT22;6756;51.354;15.754;2024-03-23T03:40:39;5.80;99.90
13375;DHT22;6756;51.354;15.754;2024-03-23T03:44:40;5.60;99.90
13375;DHT22;6756;51.354;15.754;2024-03-23T03:48:40;5.50;99.90
13375;DHT22;6756;51.354;15.754;2024-03-23T03:52:41;5.40;99.90
13375;DHT22;6756;51.354;15.754;2024-03-23T03:56:42;5.30;99.90
13375;DHT22;6756;51.354;15.754;2024-03-23T04:00:43;5.20;99.90
13375;DHT22;6756;51.354;15.754;2024-03-23T04:04:44;5.30;99.90
13375;DHT22;6756;51.354;15.754;2024-03-23T04:08:45;5.30;99.90
13375;DHT22;6756;51.354;15.754;2024-03-23T04:12:46;5.40;99.90
13375;DHT22;6756;51.354;15.754;2024-03-23T04:16:47;5.50;99.90
13375;DHT22;6756;51.354;15.754;2024-03-23T04:20:52;5.80;99.90
13375;DHT22;6756;51.354;15.754;2024-03-23T04:24:56;5.80;99.90
13375;DHT22;6756;51.354;15.754;2024-03-23T04:28:57;5.80;99.90
13375;DHT22;6756;51.354;15.754;2024-03-23T04:33:00;5.80;99.90
13375;DHT22;6756;51.354;15.754;2024-03-23T04:37:01;5.80;99.90
13375;DHT22;6756;51.354;15.754;2024-03-23T04:41:02;5.70;99.90
13375;DHT22;6756;51.354;15.754;2024-03-23T04:45:04;5.90;99.90
13375;DHT22;6756;51.354;15.754;2024-03-23T04:49:06;6.00;99.90
13375;DHT22;6756;51.354;15.754;2024-03-23T04:53:08;6.20;99.90
13375;DHT22;6756;51.354;15.754;2024-03-23T04:57:09;6.30;99.90
13375;DHT22;6756;51.354;15.754;2024-03-23T05:01:10;6.30;99.90
13375;DHT22;6756;51.354;15.754;2024-03-23T05:05:12;6.20;99.90
13375;DHT22;6756;51.354;15.754;2024-03-23T05:09:13;6.10;99.90
13375;DHT22;6756;51.354;15.754;2024-03-23T05:13:16;6.00;99.90
13375;DHT22;6756;51.354;15.754;2024-03-23T05:17:17;6.10;99.90
13375;DHT22;6756;51.354;15.754;2024-03-23T05:21:17;6.10;99.90
13375;DHT22;6756;51.354;15.754;2024-03-23T05:25:18;6.20;99.90
13375;DHT22;6756;51.354;15.754;2024-03-23T05:29:19;6.10;99.90
13375;DHT22;6756;51.354;15.754;2024-03-23T05:33:20;6.10;99.90
13375;DHT22;6756;51.354;15.754;2024-03-23T05:37:22;6.20;99.90
13375;DHT22;6756;51.354;15.754;2024-03-23T05:41:23;6.10;99.90
13375;DHT22;6756;51.354;15.754;2024-03-23T05:45:24;6.10;99.90
13375;DHT22;6756;51.354;15.754;2024-03-23T05:49:25;6.20;99.90
13375;DHT22;6756;51.354;15.754;2024-03-23T05:53:26;6.20;99.90
13375;DHT22;6756;51.354;15.754;2024-03-23T05:57:29;6.10;99.90
13375;DHT22;6756;51.354;15.754;2024-03-23T06:01:29;6.30;99.90
13375;DHT22;6756;51.354;15.754;2024-03-23T06:05:33;6.50;99.90
13375;DHT22;6756;51.354;15.754;2024-03-23T06:09:33;6.70;99.90
13375;DHT22;6756;51.354;15.754;2024-03-23T06:13:34;6.90;99.90
13375;DHT22;6756;51.354;15.754;2024-03-23T06:17:36;7.10;99.90
13375;DHT22;6756;51.354;15.754;2024-03-23T06:21:36;7.50;99.90
13375;DHT22;6756;51.354;15.754;2024-03-23T06:25:37;7.80;99.90
13375;DHT22;6756;51.354;15.754;2024-03-23T06:29:38;8.20;99.90
13375;DHT22;6756;51.354;15.754;2024-03-23T06:33:39;8.50;99.90
13375;DHT22;6756;51.354;15.754;2024-03-23T06:37:41;8.80;99.90
13375;DHT22;6756;51.354;15.754;2024-03-23T06:41:42;8.90;99.90
13375;DHT22;6756;51.354;15.754;2024-03-23T06:45:43;9.10;99.90
13375;DHT22;6756;51.354;15.754;2024-03-23T06:49:44;9.40;99.90
13375;DHT22;6756;51.354;15.754;2024-03-23T06:53:45;9.60;99.90
13375;DHT22;6756;51.354;15.754;2024-03-23T06:57:45;9.70;99.90
13375;DHT22;6756;51.354;15.754;2024-03-23T07:01:49;10.10;99.90
13375;DHT22;6756;51.354;15.754;2024-03-23T07:05:50;10.20;99.90
13375;DHT22;6756;51.354;15.754;2024-03-23T07:09:51;10.00;99.90
13375;DHT22;6756;51.354;15.754;2024-03-23T07:13:53;10.20;99.90
13375;DHT22;6756;51.354;15.754;2024-03-23T07:17:57;10.60;99.90
13375;DHT22;6756;51.354;15.754;2024-03-23T07:21:57;11.00;99.90
13375;DHT22;6756;51.354;15.754;2024-03-23T07:26:05;11.20;99.90
13375;DHT22;6756;51.354;15.754;2024-03-23T07:30:06;11.60;99.90
13375;DHT22;6756;51.354;15.754;2024-03-23T07:34:08;12.10;99.90
13375;DHT22;6756;51.354;15.754;2024-03-23T07:38:08;12.60;99.90
13375;DHT22;6756;51.354;15.754;2024-03-23T07:42:09;13.20;99.90
13375;DHT22;6756;51.354;15.754;2024-03-23T07:46:10;13.50;99.90
13375;DHT22;6756;51.354;15.754;2024-03-23T07:50:12;13.50;99.90
13375;DHT22;6756;51.354;15.754;2024-03-23T07:54:13;13.50;99.90
13375;DHT22;6756;51.354;15.754;2024-03-23T07:58:14;13.70;99.90
13375;DHT22;6756;51.354;15.754;2024-03-23T08:02:15;14.00;99.90
13375;DHT22;6756;51.354;15.754;2024-03-23T08:06:19;14.20;36.10
13375;DHT22;6756;51.354;15.754;2024-03-23T08:10:20;14.30;1.00
13375;DHT22;6756;51.354;15.754;2024-03-23T08:14:21;14.10;1.00
13375;DHT22;6756;51.354;15.754;2024-03-23T08:18:22;13.90;1.00
13375;DHT22;6756;51.354;15.754;2024-03-23T08:22:23;13.50;1.00
13375;DHT22;6756;51.354;15.754;2024-03-23T08:26:23;13.00;2.60
13375;DHT22;6756;51.354;15.754;2024-03-23T08:30:24;12.70;46.40
13375;DHT22;6756;51.354;15.754;2024-03-23T08:34:25;12.50;90.20
13375;DHT22;6756;51.354;15.754;2024-03-23T08:38:27;12.40;99.90
13375;DHT22;6756;51.354;15.754;2024-03-23T08:42:27;12.40;99.90
13375;DHT22;6756;51.354;15.754;2024-03-23T08:46:28;12.30;99.90
13375;DHT22;6756;51.354;15.754;2024-03-23T08:50:29;12.30;99.90
13375;DHT22;6756;51.354;15.754;2024-03-23T08:54:30;12.20;99.90
13375;DHT22;6756;51.354;15.754;2024-03-23T08:58:32;12.20;99.90
13375;DHT22;6756;51.354;15.754;2024-03-23T09:02:33;12.20;99.90
13375;DHT22;6756;51.354;15.754;2024-03-23T09:06:34;11.80;1.00
13375;DHT22;6756;51.354;15.754;2024-03-23T09:10:42;11.20;1.00
13375;DHT22;6756;51.354;15.754;2024-03-23T09:14:43;10.90;99.90
13375;DHT22;6756;51.354;15.754;2024-03-23T09:18:43;10.80;1.00
13375;DHT22;6756;51.354;15.754;2024-03-23T09:22:47;10.90;99.90
13375;DHT22;6756;51.354;15.754;2024-03-23T09:26:48;11.00;99.90
13375;DHT22;6756;51.354;15.754;2024-03-23T09:30:49;11.00;99.90
13375;DHT22;6756;51.354;15.754;2024-03-23T09:34:49;11.10;99.90
13375;DHT22;6756;51.354;15.754;2024-03-23T09:38:50;11.10;1.00
13375;DHT22;6756;51.354;15.754;2024-03-23T09:42:51;11.20;99.90
13375;DHT22;6756;51.354;15.754;2024-03-23T09:46:52;11.50;99.90
13375;DHT22;6756;51.354;15.754;2024-03-23T09:50:53;11.90;99.90
13375;DHT22;6756;51.354;15.754;2024-03-23T09:54:54;12.40;99.90
13375;DHT22;6756;51.354;15.754;2024-03-23T09:59:01;12.90;99.90
13375;DHT22;6756;51.354;15.754;2024-03-23T10:03:03;13.40;99.90
13375;DHT22;6756;51.354;15.754;2024-03-23T10:07:12;13.70;99.90
13375;DHT22;6756;51.354;15.754;2024-03-23T10:11:14;14.10;61.30
13375;DHT22;6756;51.354;15.754;2024-03-23T10:15:24;14.40;1.00
13375;DHT22;6756;51.354;15.754;2024-03-23T10:19:31;14.10;1.00
13375;DHT22;6756;51.354;15.754;2024-03-23T10:23:33;14.50;1.00
13375;DHT22;6756;51.354;15.754;2024-03-23T10:27:34;14.90;1.00
13375;DHT22;6756;51.354;15.754;2024-03-23T10:31:35;15.50;1.00
13375;DHT22;6756;51.354;15.754;2024-03-23T10:35:42;15.70;1.00
13375;DHT22;6756;51.354;15.754;2024-03-23T10:39:43;15.70;1.00
13375;DHT22;6756;51.354;15.754;2024-03-23T10:43:48;15.50;1.00
13375;DHT22;6756;51.354;15.754;2024-03-23T10:47:49;15.20;1.00
13375;DHT22;6756;51.354;15.754;2024-03-23T10:51:50;15.30;1.00
13375;DHT22;6756;51.354;15.754;2024-03-23T10:55:51;15.50;1.00
13375;DHT22;6756;51.354;15.754;2024-03-23T10:59:52;15.70;1.00
13375;DHT22;6756;51.354;15.754;2024-03-23T11:03:54;15.70;1.00
13375;DHT22;6756;51.354;15.754;2024-03-23T11:07:55;15.60;1.00
13375;DHT22;6756;51.354;15.754;2024-03-23T11:11:55;15.40;1.00
13375;DHT22;6756;51.354;15.754;2024-03-23T11:16:23;15.10;1.00
13375;DHT22;6756;51.354;15.754;2024-03-23T11:20:31;14.70;1.00
13375;DHT22;6756;51.354;15.754;2024-03-23T11:24:32;14.20;1.00
13375;DHT22;6756;51.354;15.754;2024-03-23T11:28:33;13.80;1.00
13375;DHT22;6756;51.354;15.754;2024-03-23T11:32:35;13.40;1.00
13375;DHT22;6756;51.354;15.754;2024-03-23T11:36:37;13.30;1.00
13375;DHT22;6756;51.354;15.754;2024-03-23T11:40:42;13.30;1.00
13375;DHT22;6756;51.354;15.754;2024-03-23T11:44:43;13.30;1.00
13375;DHT22;6756;51.354;15.754;2024-03-23T11:48:50;13.30;1.00
13375;DHT22;6756;51.354;15.754;2024-03-23T11:53:16;13.40;1.00
13375;DHT22;6756;51.354;15.754;2024-03-23T11:57:17;13.70;1.00
13375;DHT22;6756;51.354;15.754;2024-03-23T12:01:18;13.90;1.00
13375;DHT22;6756;51.354;15.754;2024-03-23T12:05:20;13.90;1.00
13375;DHT22;6756;51.354;15.754;2024-03-23T12:09:22;14.00;1.00
13375;DHT22;6756;51.354;15.754;2024-03-23T12:13:23;13.50;1.00
13375;DHT22;6756;51.354;15.754;2024-03-23T12:17:24;12.20;1.00
13375;DHT22;6756;51.354;15.754;2024-03-23T12:21:26;11.30;1.00
13375;DHT22;6756;51.354;15.754;2024-03-23T12:25:26;10.30;1.00
13375;DHT22;6756;51.354;15.754;2024-03-23T12:29:31;9.90;1.00
13375;DHT22;6756;51.354;15.754;2024-03-23T12:33:32;9.20;42.70
13375;DHT22;6756;51.354;15.754;2024-03-23T12:37:33;8.60;99.90
13375;DHT22;6756;51.354;15.754;2024-03-23T12:41:34;8.00;99.90
13375;DHT22;6756;51.354;15.754;2024-03-23T12:45:35;7.30;99.90
13375;DHT22;6756;51.354;15.754;2024-03-23T12:49:35;7.00;99.90
13375;DHT22;6756;51.354;15.754;2024-03-23T12:53:36;6.60;99.90
13375;DHT22;6756;51.354;15.754;2024-03-23T12:57:37;6.40;99.90
13375;DHT22;6756;51.354;15.754;2024-03-23T13:01:38;6.10;99.90
13375;DHT22;6756;51.354;15.754;2024-03-23T13:05:39;6.00;99.90
13375;DHT22;6756;51.354;15.754;2024-03-23T13:09:40;6.00;99.90
13375;DHT22;6756;51.354;15.754;2024-03-23T13:13:41;5.90;99.90
13375;DHT22;6756;51.354;15.754;2024-03-23T13:17:42;5.80;1.00
13375;DHT22;6756;51.354;15.754;2024-03-23T13:21:43;5.80;93.70
13375;DHT22;6756;51.354;15.754;2024-03-23T13:25:56;5.70;99.90
13375;DHT22;6756;51.354;15.754;2024-03-23T13:29:57;5.70;99.90
13375;DHT22;6756;51.354;15.754;2024-03-23T13:33:58;5.50;99.90
13375;DHT22;6756;51.354;15.754;2024-03-23T13:37:59;5.40;99.90
13375;DHT22;6756;51.354;15.754;2024-03-23T13:42:00;5.30;99.90
13375;DHT22;6756;51.354;15.754;2024-03-23T13:46:01;5.10;99.90
13375;DHT22;6756;51.354;15.754;2024-03-23T13:50:02;5.10;1.00
13375;DHT22;6756;51.354;15.754;2024-03-23T13:54:03;5.10;99.90
13375;DHT22;6756;51.354;15.754;2024-03-23T13:58:04;5.00;1.00
13375;DHT22;6756;51.354;15.754;2024-03-23T14:02:04;5.10;1.00
13375;DHT22;6756;51.354;15.754;2024-03-23T14:06:05;5.10;1.00
13375;DHT22;6756;51.354;15.754;2024-03-23T14:10:08;5.30;99.90
13375;DHT22;6756;51.354;15.754;2024-03-23T14:14:11;5.30;99.90
13375;DHT22;6756;51.354;15.754;2024-03-23T14:18:12;5.30;99.90
13375;DHT22;6756;51.354;15.754;2024-03-23T14:22:14;5.30;99.90
13375;DHT22;6756;51.354;15.754;2024-03-23T14:26:15;5.40;99.90
13375;DHT22;6756;51.354;15.754;2024-03-23T14:30:16;5.50;99.90
13375;DHT22;6756;51.354;15.754;2024-03-23T14:34:17;5.60;99.90
13375;DHT22;6756;51.354;15.754;2024-03-23T14:38:18;5.60;99.90
13375;DHT22;6756;51.354;15.754;2024-03-23T14:42:19;5.60;99.90
13375;DHT22;6756;51.354;15.754;2024-03-23T14:46:20;5.40;99.90
13375;DHT22;6756;51.354;15.754;2024-03-23T14:50:21;5.20;99.90
13375;DHT22;6756;51.354;15.754;2024-03-23T14:54:22;5.20;99.90
13375;DHT22;6756;51.354;15.754;2024-03-23T14:58:23;5.10;99.90
13375;DHT22;6756;51.354;15.754;2024-03-23T15:02:25;5.10;66.90
13375;DHT22;6756;51.354;15.754;2024-03-23T15:06:27;5.10;10.70
13375;DHT22;6756;51.354;15.754;2024-03-23T15:10:28;5.10;1.00
13375;DHT22;6756;51.354;15.754;2024-03-23T15:14:29;5.10;1.00
13375;DHT22;6756;51.354;15.754;2024-03-23T15:18:30;5.10;1.00
13375;DHT22;6756;51.354;15.754;2024-03-23T15:22:31;5.10;1.00
13375;DHT22;6756;51.354;15.754;2024-03-23T15:26:32;5.20;1.00
13375;DHT22;6756;51.354;15.754;2024-03-23T15:30:33;5.20;1.00
13375;DHT22;6756;51.354;15.754;2024-03-23T15:34:34;5.20;1.00
13375;DHT22;6756;51.354;15.754;2024-03-23T15:38:35;5.00;1.00
13375;DHT22;6756;51.354;15.754;2024-03-23T15:42:35;4.90;1.00
13375;DHT22;6756;51.354;15.754;2024-03-23T15:46:36;4.90;1.00
13375;DHT22;6756;51.354;15.754;2024-03-23T15:50:37;4.90;1.00
13375;DHT22;6756;51.354;15.754;2024-03-23T15:54:38;4.90;1.00
13375;DHT22;6756;51.354;15.754;2024-03-23T15:58:40;5.10;1.00
13375;DHT22;6756;51.354;15.754;2024-03-23T16:02:40;5.20;1.00
13375;DHT22;6756;51.354;15.754;2024-03-23T16:06:42;5.20;1.00
13375;DHT22;6756;51.354;15.754;2024-03-23T16:10:44;5.20;1.00
13375;DHT22;6756;51.354;15.754;2024-03-23T16:14:48;5.20;1.00
13375;DHT22;6756;51.354;15.754;2024-03-23T16:18:49;5.10;1.00
13375;DHT22;6756;51.354;15.754;2024-03-23T16:22:50;5.00;1.00
13375;DHT22;6756;51.354;15.754;2024-03-23T16:26:50;5.00;1.00
13375;DHT22;6756;51.354;15.754;2024-03-23T16:31:10;4.90;1.00
13375;DHT22;6756;51.354;15.754;2024-03-23T16:35:12;4.90;1.00
13375;DHT22;6756;51.354;15.754;2024-03-23T16:39:13;4.90;1.00
13375;DHT22;6756;51.354;15.754;2024-03-23T16:43:15;4.90;1.00
13375;DHT22;6756;51.354;15.754;2024-03-23T16:47:17;4.90;1.00
13375;DHT22;6756;51.354;15.754;2024-03-23T16:51:17;4.90;1.00
13375;DHT22;6756;51.354;15.754;2024-03-23T16:55:18;4.80;1.00
13375;DHT22;6756;51.354;15.754;2024-03-23T16:59:19;4.70;1.00
13375;DHT22;6756;51.354;15.754;2024-03-23T17:03:20;4.60;1.00
13375;DHT22;6756;51.354;15.754;2024-03-23T17:07:20;4.50;1.00
13375;DHT22;6756;51.354;15.754;2024-03-23T17:11:21;4.40;6.00
13375;DHT22;6756;51.354;15.754;2024-03-23T17:15:22;4.30;18.60
13375;DHT22;6756;51.354;15.754;2024-03-23T17:19:23;4.20;38.90
13375;DHT22;6756;51.354;15.754;2024-03-23T17:23:28;4.10;73.40
13375;DHT22;6756;51.354;15.754;2024-03-23T17:27:29;4.00;95.30
13375;DHT22;6756;51.354;15.754;2024-03-23T17:31:30;3.90;99.90
13375;DHT22;6756;51.354;15.754;2024-03-23T17:35:31;3.90;99.90
13375;DHT22;6756;51.354;15.754;2024-03-23T17:39:32;3.80;99.90
13375;DHT22;6756;51.354;15.754;2024-03-23T17:43:33;3.80;99.90
13375;DHT22;6756;51.354;15.754;2024-03-23T17:47:35;3.80;99.90
13375;DHT22;6756;51.354;15.754;2024-03-23T17:51:37;3.70;99.90
13375;DHT22;6756;51.354;15.754;2024-03-23T17:55:37;3.70;99.90
13375;DHT22;6756;51.354;15.754;2024-03-23T17:59:38;3.60;99.90
13375;DHT22;6756;51.354;15.754;2024-03-23T18:03:39;3.50;99.90
13375;DHT22;6756;51.354;15.754;2024-03-23T18:07:39;3.40;99.90
13375;DHT22;6756;51.354;15.754;2024-03-23T18:11:41;3.40;1.00
13375;DHT22;6756;51.354;15.754;2024-03-23T18:15:42;3.40;1.00
13375;DHT22;6756;51.354;15.754;2024-03-23T18:19:42;3.40;1.00
13375;DHT22;6756;51.354;15.754;2024-03-23T18:23:48;3.40;1.00
13375;DHT22;6756;51.354;15.754;2024-03-23T18:27:49;3.50;93.60
13375;DHT22;6756;51.354;15.754;2024-03-23T18:31:50;3.50;99.90
13375;DHT22;6756;51.354;15.754;2024-03-23T18:35:53;3.50;99.90
13375;DHT22;6756;51.354;15.754;2024-03-23T18:39:54;3.60;99.90
13375;DHT22;6756;51.354;15.754;2024-03-23T18:43:55;3.60;99.90
13375;DHT22;6756;51.354;15.754;2024-03-23T18:47:56;3.60;99.90
13375;DHT22;6756;51.354;15.754;2024-03-23T18:51:58;3.60;99.90
13375;DHT22;6756;51.354;15.754;2024-03-23T18:55:59;3.60;64.70
13375;DHT22;6756;51.354;15.754;2024-03-23T19:00:06;3.60;1.00
13375;DHT22;6756;51.354;15.754;2024-03-23T19:04:09;3.60;1.00
13375;DHT22;6756;51.354;15.754;2024-03-23T19:08:10;3.60;1.00
13375;DHT22;6756;51.354;15.754;2024-03-23T19:12:11;3.60;1.00
13375;DHT22;6756;51.354;15.754;2024-03-23T19:16:11;3.50;1.00
13375;DHT22;6756;51.354;15.754;2024-03-23T19:20:12;3.50;1.00
13375;DHT22;6756;51.354;15.754;2024-03-23T19:24:14;3.40;1.00
13375;DHT22;6756;51.354;15.754;2024-03-23T19:28:15;3.40;1.00
13375;DHT22;6756;51.354;15.754;2024-03-23T19:32:16;3.40;1.00
13375;DHT22;6756;51.354;15.754;2024-03-23T19:36:16;3.40;1.00
13375;DHT22;6756;51.354;15.754;2024-03-23T19:40:18;3.40;1.00
13375;DHT22;6756;51.354;15.754;2024-03-23T19:44:18;3.40;1.00
13375;DHT22;6756;51.354;15.754;2024-03-23T19:48:19;3.40;1.00
13375;DHT22;6756;51.354;15.754;2024-03-23T19:52:20;3.30;1.00
13375;DHT22;6756;51.354;15.754;2024-03-23T19:56:21;3.30;1.00
13375;DHT22;6756;51.354;15.754;2024-03-23T20:00:22;3.30;1.00
13375;DHT22;6756;51.354;15.754;2024-03-23T20:04:23;3.20;1.00
13375;DHT22;6756;51.354;15.754;2024-03-23T20:08:23;3.20;1.00
13375;DHT22;6756;51.354;15.754;2024-03-23T20:12:24;3.00;1.00
13375;DHT22;6756;51.354;15.754;2024-03-23T20:16:26;3.00;1.00
13375;DHT22;6756;51.354;15.754;2024-03-23T20:20:26;2.90;55.40
13375;DHT22;6756;51.354;15.754;2024-03-23T20:24:27;2.90;76.00
13375;DHT22;6756;51.354;15.754;2024-03-23T20:28:28;2.90;99.90
13375;DHT22;6756;51.354;15.754;2024-03-23T20:32:29;2.80;99.90
13375;DHT22;6756;51.354;15.754;2024-03-23T20:36:30;2.80;99.90
13375;DHT22;6756;51.354;15.754;2024-03-23T20:40:30;2.70;99.90
13375;DHT22;6756;51.354;15.754;2024-03-23T20:44:31;2.70;1.00
13375;DHT22;6756;51.354;15.754;2024-03-23T20:48:33;2.80;19.50
13375;DHT22;6756;51.354;15.754;2024-03-23T20:52:35;2.80;1.00
13375;DHT22;6756;51.354;15.754;2024-03-23T20:56:36;2.80;99.90
13375;DHT22;6756;51.354;15.754;2024-03-23T21:00:36;2.90;99.90
13375;DHT22;6756;51.354;15.754;2024-03-23T21:04:37;3.00;99.90
13375;DHT22;6756;51.354;15.754;2024-03-23T21:08:38;3.00;1.00
13375;DHT22;6756;51.354;15.754;2024-03-23T21:12:39;2.90;99.90
13375;DHT22;6756;51.354;15.754;2024-03-23T21:16:40;2.90;99.90
13375;DHT22;6756;51.354;15.754;2024-03-23T21:20:41;2.80;99.90
13375;DHT22;6756;51.354;15.754;2024-03-23T21:24:42;2.80;1.00
13375;DHT22;6756;51.354;15.754;2024-03-23T21:28:44;2.70;1.00
13375;DHT22;6756;51.354;15.754;2024-03-23T21:32:45;2.70;1.00
13375;DHT22;6756;51.354;15.754;2024-03-23T21:36:50;2.70;47.80
13375;DHT22;6756;51.354;15.754;2024-03-23T21:40:56;2.60;99.90
13375;DHT22;6756;51.354;15.754;2024-03-23T21:44:59;2.60;99.90
13375;DHT22;6756;51.354;15.754;2024-03-23T21:49:00;2.60;99.90
13375;DHT22;6756;51.354;15.754;2024-03-23T21:53:01;2.50;99.90
13375;DHT22;6756;51.354;15.754;2024-03-23T21:57:01;2.50;99.90
13375;DHT22;6756;51.354;15.754;2024-03-23T22:01:05;2.40;1.00
13375;DHT22;6756;51.354;15.754;2024-03-23T22:05:07;2.40;99.90
13375;DHT22;6756;51.354;15.754;2024-03-23T22:09:08;2.40;99.90
13375;DHT22;6756;51.354;15.754;2024-03-23T22:13:09;2.30;99.90
13375;DHT22;6756;51.354;15.754;2024-03-23T22:17:09;2.10;1.00
13375;DHT22;6756;51.354;15.754;2024-03-23T22:21:10;2.00;1.00
13375;DHT22;6756;51.354;15.754;2024-03-23T22:25:11;2.00;99.90
13375;DHT22;6756;51.354;15.754;2024-03-23T22:29:12;1.90;99.90
13375;DHT22;6756;51.354;15.754;2024-03-23T22:33:12;1.90;99.90
13375;DHT22;6756;51.354;15.754;2024-03-23T22:37:13;1.80;1.00
13375;DHT22;6756;51.354;15.754;2024-03-23T22:41:14;1.80;99.90
13375;DHT22;6756;51.354;15.754;2024-03-23T22:45:16;1.80;1.00
13375;DHT22;6756;51.354;15.754;2024-03-23T22:49:16;1.80;99.90
13375;DHT22;6756;51.354;15.754;2024-03-23T22:53:17;1.80;1.00
13375;DHT22;6756;51.354;15.754;2024-03-23T22:57:18;1.80;99.90
13375;DHT22;6756;51.354;15.754;2024-03-23T23:01:19;1.90;1.00
13375;DHT22;6756;51.354;15.754;2024-03-23T23:05:19;1.90;99.90
13375;DHT22;6756;51.354;15.754;2024-03-23T23:09:20;2.10;99.90
13375;DHT22;6756;51.354;15.754;2024-03-23T23:13:21;2.20;99.90
13375;DHT22;6756;51.354;15.754;2024-03-23T23:17:22;2.20;99.90
13375;DHT22;6756;51.354;15.754;2024-03-23T23:21:23;2.20;99.90
13375;DHT22;6756;51.354;15.754;2024-03-23T23:25:23;2.20;99.90
13375;DHT22;6756;51.354;15.754;2024-03-23T23:29:24;2.20;99.90
13375;DHT22;6756;51.354;15.754;2024-03-23T23:33:25;2.30;99.90
13375;DHT22;6756;51.354;15.754;2024-03-23T23:37:26;2.30;99.90
13375;DHT22;6756;51.354;15.754;2024-03-23T23:41:27;2.10;99.90
13375;DHT22;6756;51.354;15.754;2024-03-23T23:45:28;2.00;99.90
13375;DHT22;6756;51.354;15.754;2024-03-23T23:49:29;1.90;99.90
13375;DHT22;6756;51.354;15.754;2024-03-23T23:53:29;1.80;99.90
13375;DHT22;6756;51.354;15.754;2024-03-23T23:57:30;1.70;99.90
